Phillips, WI

7:25 AM CDT on June 29, 2017 (GMT -0500)
Price County

Weather History for KPBH - September, 2013

Change the Weather History Date:

Saturday, September 28, 2013

  Actual Average Record
Temperature  
Mean Temperature 60 °F -  
Max Temperature 72 °F 58 °F 77 °F (2014)
Min Temperature 48 °F 39 °F 30 °F (2012)
Degree Days  
Heating Degree Days 4    
Growing Degree Days 10 (Base 50)    
Moisture  
Dew Point 52 °F    
Average Humidity 78    
Maximum Humidity 97    
Minimum Humidity 58    
Precipitation  
Precipitation 0.36 in - - ()
Sea Level Pressure  
Sea Level Pressure 29.85 in    
Wind  
Wind Speed 12 mph (South)    
Max Wind Speed 28 mph    
Max Gust Speed 38 mph    
Visibility 9 miles    
Events Rain    
Averages and records for this station are not official NWS values.
T = Trace of Precipitation, MM = Missing Value Source: NWS Daily Summary

Daily Weather History Graph

Daily Weather History Graph

Search for Another Location

Airport or City:

Trip Planner

Search our weather history database for the weather conditions in past years. The results will help you decide how hot, cold, wet, or windy it might be!

Date:

Astronomy

Sep. 28, 2013 Rise Set
Actual Time 6:56 AM CDT 6:47 PM CDT
Civil Twilight 6:26 AM CDT 7:16 PM CDT
Nautical Twilight 5:52 AM CDT 7:51 PM CDT
Astronomical Twilight 5:16 AM CDT 8:26 PM CDT
Moon 12:28 AM CDT (9/28) 3:20 PM CDT (9/28)
Length of Visible Light 12h 49m
Length of Day
11h 50m
Waning Crescent, 36% of the Moon is Illuminated
Sep 28
Waning Crescent
Oct 4
New
Oct 11
First Quarter
Oct 18
Full
Oct 26
Last Quarter

Hourly Weather History & Observations

Time (CDT) Temp. Dew Point Humidity Pressure Visibility Wind Dir Wind Speed Gust Speed Precip Events Conditions
12:15 AM 65.3 °F 51.8 °F 62% 29.98 in 10.0 mi South 13.8 mph 18.4 mph N/A   Clear
12:35 AM 64.8 °F 51.8 °F 63% 29.98 in 10.0 mi South 11.5 mph - N/A   Clear
12:55 AM 63.7 °F 52.0 °F 66% 29.98 in 10.0 mi SSE 11.5 mph 18.4 mph N/A   Clear
1:15 AM 62.4 °F 52.0 °F 69% 29.97 in 10.0 mi SSE 10.4 mph - N/A   Clear
1:35 AM 61.7 °F 52.2 °F 71% 29.97 in 10.0 mi SSE 8.1 mph - N/A   Clear
1:55 AM 60.8 °F 52.0 °F 73% 29.97 in 10.0 mi SSE 6.9 mph - N/A   Clear
2:15 AM 59.9 °F 51.8 °F 75% 29.97 in 10.0 mi SSE 8.1 mph - N/A   Clear
2:35 AM 60.3 °F 51.3 °F 72% 29.96 in 10.0 mi SSE 9.2 mph - N/A   Clear
2:55 AM 59.9 °F 50.9 °F 72% 29.96 in 10.0 mi SSE 9.2 mph 17.3 mph N/A   Clear
3:15 AM 59.7 °F 50.5 °F 72% 29.94 in 10.0 mi SSE 9.2 mph - N/A   Clear
3:35 AM 59.4 °F 50.2 °F 72% 29.94 in 10.0 mi SSE 10.4 mph 17.3 mph N/A   Clear
3:55 AM 59.2 °F 49.5 °F 70% 29.94 in 10.0 mi SSE 9.2 mph - N/A   Clear
4:15 AM 58.5 °F 49.1 °F 71% 29.94 in 10.0 mi SSE 9.2 mph - N/A   Clear
4:35 AM 58.3 °F 48.7 °F 71% 29.93 in 10.0 mi SSE 9.2 mph - N/A   Clear
4:55 AM 58.3 °F 48.6 °F 70% 29.93 in 10.0 mi SSE 8.1 mph - N/A   Scattered Clouds
5:15 AM 58.1 °F 48.2 °F 70% 29.92 in 10.0 mi SSE 10.4 mph - N/A   Scattered Clouds
5:35 AM 58.1 °F 48.2 °F 70% 29.92 in 10.0 mi SSE 8.1 mph - N/A   Scattered Clouds
5:55 AM 58.1 °F 48.2 °F 70% 29.91 in 10.0 mi SSE 9.2 mph - N/A   Scattered Clouds
6:15 AM 58.1 °F 48.2 °F 70% 29.92 in 10.0 mi SSE 9.2 mph 17.3 mph N/A   Scattered Clouds
6:35 AM 58.1 °F 48.4 °F 70% 29.91 in 10.0 mi SSE 11.5 mph 17.3 mph N/A   Mostly Cloudy
6:55 AM 58.3 °F 48.4 °F 70% 29.91 in 10.0 mi SSE 10.4 mph 17.3 mph N/A   Scattered Clouds
7:15 AM 57.7 °F 48.7 °F 72% 29.91 in 10.0 mi SSE 10.4 mph 17.3 mph N/A   Scattered Clouds
7:35 AM 58.1 °F 49.1 °F 72% 29.89 in 10.0 mi SSE 11.5 mph 17.3 mph N/A   Scattered Clouds
7:55 AM 59.0 °F 49.6 °F 71% 29.89 in 10.0 mi South 11.5 mph 19.6 mph N/A   Clear
8:15 AM 59.5 °F 50.2 °F 71% 29.88 in 10.0 mi South 13.8 mph 19.6 mph N/A   Scattered Clouds
8:35 AM 60.4 °F 50.9 °F 71% 29.88 in 10.0 mi South 16.1 mph 20.7 mph N/A   Mostly Cloudy
8:55 AM 61.0 °F 51.6 °F 71% 29.87 in 10.0 mi South 16.1 mph 25.3 mph N/A   Mostly Cloudy
9:15 AM 62.4 °F 52.3 °F 70% 29.86 in 10.0 mi South 16.1 mph 21.9 mph N/A   Mostly Cloudy
9:35 AM 62.2 °F 52.7 °F 71% 29.85 in 10.0 mi South 11.5 mph 19.6 mph N/A   Mostly Cloudy
9:55 AM 64.0 °F 53.8 °F 69% 29.84 in 10.0 mi SSE 13.8 mph 25.3 mph N/A   Mostly Cloudy
10:15 AM 66.2 °F 55.0 °F 67% 29.83 in 10.0 mi SSE 23.0 mph 29.9 mph N/A   Scattered Clouds
10:35 AM 67.3 °F 55.6 °F 66% 29.82 in 10.0 mi SSE 16.1 mph 28.8 mph N/A   Clear
10:55 AM 69.3 °F 56.7 °F 64% 29.81 in 10.0 mi South 16.1 mph 25.3 mph N/A   Clear
11:15 AM 69.4 °F 56.3 °F 63% 29.79 in 10.0 mi South 18.4 mph 28.8 mph N/A   Clear
11:35 AM 70.3 °F 56.1 °F 61% 29.77 in 10.0 mi SSE 18.4 mph 29.9 mph N/A   Clear
11:55 AM 71.2 °F 56.7 °F 60% 29.77 in 10.0 mi SSE 16.1 mph 26.5 mph N/A   Clear
12:15 PM 72.5 °F 57.0 °F 58% 29.75 in 10.0 mi South 25.3 mph 33.4 mph N/A   Scattered Clouds
12:35 PM 71.6 °F 56.3 °F 58% 29.74 in 10.0 mi SSE 27.6 mph 35.7 mph N/A   Overcast
12:55 PM 71.6 °F 56.3 °F 58% 29.73 in 10.0 mi South 18.4 mph 34.5 mph N/A   Overcast
1:15 PM 71.4 °F 56.1 °F 58% 29.72 in 10.0 mi SSE 24.2 mph 29.9 mph N/A   Overcast
1:35 PM 70.7 °F 55.6 °F 59% 29.70 in 10.0 mi South 18.4 mph 32.2 mph N/A   Overcast
1:55 PM 70.3 °F 55.9 °F 60% 29.70 in 10.0 mi South 18.4 mph 27.6 mph N/A   Overcast
2:15 PM 70.0 °F 56.3 °F 62% 29.70 in 10.0 mi South 24.2 mph 31.1 mph N/A   Overcast
2:35 PM 69.8 °F 57.2 °F 64% 29.69 in 10.0 mi South 20.7 mph 32.2 mph N/A   Overcast
2:55 PM 64.8 °F 60.3 °F 85% 29.70 in 3.0 mi South 18.4 mph 38.0 mph 0.01 in Rain Rain
3:15 PM 63.0 °F 61.3 °F 94% 29.70 in 3.0 mi South 13.8 mph 18.4 mph 0.07 in Rain Rain
3:35 PM 63.0 °F 61.7 °F 96% 29.70 in 4.0 mi South 13.8 mph 21.9 mph 0.12 in Rain Light Rain
3:55 PM 63.0 °F 61.7 °F 96% 29.69 in 4.0 mi South 18.4 mph 21.9 mph 0.18 in Rain Light Rain
4:15 PM 63.3 °F 61.7 °F 94% 29.70 in 4.0 mi SSW 16.1 mph 26.5 mph 0.01 in Rain Light Rain
4:35 PM 57.9 °F 56.3 °F 94% 29.76 in 4.0 mi WSW 15.0 mph 26.5 mph 0.11 in Rain Rain
4:55 PM 55.6 °F 53.6 °F 93% 29.77 in 5.0 mi WSW 12.7 mph 19.6 mph 0.13 in Rain Rain
5:15 PM 54.7 °F 53.2 °F 95% 29.78 in 7.0 mi WSW 10.4 mph - N/A   Drizzle
5:35 PM 54.0 °F 52.7 °F 95% 29.80 in 4.0 mi WSW 9.2 mph - 0.01 in   Drizzle
5:55 PM 53.1 °F 52.2 °F 97% 29.81 in 3.0 mi WSW 8.1 mph - 0.03 in   Drizzle
6:15 PM 52.9 °F 51.8 °F 96% 29.81 in 10.0 mi WSW 5.8 mph - N/A   Light Drizzle
6:35 PM 52.7 °F 51.1 °F 94% 29.81 in 10.0 mi WSW 5.8 mph - N/A   Overcast
6:55 PM 52.3 °F 50.9 °F 95% 29.83 in 10.0 mi WSW 9.2 mph 16.1 mph N/A   Overcast
7:15 PM 52.0 °F 50.2 °F 94% 29.84 in 10.0 mi WSW 8.1 mph - N/A   Overcast
7:35 PM 51.4 °F 50.0 °F 95% 29.84 in 10.0 mi WSW 8.1 mph - N/A   Overcast
7:55 PM 52.0 °F 50.4 °F 94% 29.84 in 10.0 mi SW 8.1 mph - N/A   Overcast
8:15 PM 52.0 °F 50.5 °F 95% 29.85 in 10.0 mi SW 8.1 mph - N/A   Overcast
8:35 PM 52.3 °F 50.7 °F 94% 29.86 in 10.0 mi SW 6.9 mph - N/A   Overcast
8:55 PM 52.2 °F 50.5 °F 94% 29.87 in 10.0 mi WSW 6.9 mph - N/A   Overcast
9:15 PM 51.8 °F 50.7 °F 96% 29.87 in 10.0 mi WSW 5.8 mph - N/A Rain Light Rain
9:35 PM 51.8 °F 50.2 °F 94% 29.88 in 10.0 mi WSW 6.9 mph - 0.01 in   Overcast
9:55 PM 51.4 °F 50.0 °F 95% 29.89 in 10.0 mi WSW 6.9 mph - 0.01 in   Overcast
10:15 PM 51.1 °F 49.3 °F 94% 29.89 in 10.0 mi WSW 5.8 mph - N/A   Overcast
10:35 PM 50.4 °F 49.1 °F 95% 29.90 in 10.0 mi WSW 6.9 mph - N/A   Mostly Cloudy
10:55 PM 50.0 °F 48.6 °F 95% 29.90 in 10.0 mi WSW 8.1 mph - N/A   Mostly Cloudy
11:15 PM 49.6 °F 48.2 °F 95% 29.90 in 10.0 mi WSW 6.9 mph - N/A   Mostly Cloudy
11:35 PM 49.1 °F 47.5 °F 94% 29.91 in 10.0 mi WSW 3.5 mph - N/A   Scattered Clouds
11:55 PM 48.2 °F 47.1 °F 96% 29.91 in 10.0 mi WSW 3.5 mph - N/A   Scattered Clouds